sensor_id;sensor_type;location;lat;lon;timestamp;P1;durP1;ratioP1;P2;durP2;ratioP2
60588;SDS011;46421;48.610;9.334;2023-06-26T00:01:33;7.23;;;3.50;;
60588;SDS011;46421;48.610;9.334;2023-06-26T00:03:58;8.40;;;3.70;;
60588;SDS011;46421;48.610;9.334;2023-06-26T00:06:27;7.20;;;3.72;;
60588;SDS011;46421;48.610;9.334;2023-06-26T00:08:52;10.43;;;4.30;;
60588;SDS011;46421;48.610;9.334;2023-06-26T00:11:18;10.60;;;3.90;;
60588;SDS011;46421;48.610;9.334;2023-06-26T00:13:43;9.43;;;4.13;;
60588;SDS011;46421;48.610;9.334;2023-06-26T00:16:08;8.20;;;4.27;;
60588;SDS011;46421;48.610;9.334;2023-06-26T00:18:34;9.37;;;4.23;;
60588;SDS011;46421;48.610;9.334;2023-06-26T00:20:59;8.50;;;4.03;;
60588;SDS011;46421;48.610;9.334;2023-06-26T00:23:24;7.38;;;3.40;;
60588;SDS011;46421;48.610;9.334;2023-06-26T00:25:49;9.33;;;4.23;;
60588;SDS011;46421;48.610;9.334;2023-06-26T00:28:15;7.23;;;3.53;;
60588;SDS011;46421;48.610;9.334;2023-06-26T00:30:40;7.83;;;4.10;;
60588;SDS011;46421;48.610;9.334;2023-06-26T00:33:05;10.70;;;4.20;;
60588;SDS011;46421;48.610;9.334;2023-06-26T00:35:30;8.37;;;3.73;;
60588;SDS011;46421;48.610;9.334;2023-06-26T00:37:56;9.23;;;4.23;;
60588;SDS011;46421;48.610;9.334;2023-06-26T00:40:21;8.67;;;3.57;;
60588;SDS011;46421;48.610;9.334;2023-06-26T00:42:46;8.98;;;4.22;;
60588;SDS011;46421;48.610;9.334;2023-06-26T00:45:12;8.75;;;3.83;;
60588;SDS011;46421;48.610;9.334;2023-06-26T00:47:37;8.20;;;3.80;;
60588;SDS011;46421;48.610;9.334;2023-06-26T00:50:02;9.90;;;3.83;;
60588;SDS011;46421;48.610;9.334;2023-06-26T00:52:28;7.93;;;3.72;;
60588;SDS011;46421;48.610;9.334;2023-06-26T00:54:53;8.27;;;4.30;;
60588;SDS011;46421;48.610;9.334;2023-06-26T00:57:19;8.60;;;4.00;;
60588;SDS011;46421;48.610;9.334;2023-06-26T00:59:44;8.00;;;3.67;;
60588;SDS011;46421;48.610;9.334;2023-06-26T01:02:10;9.07;;;4.57;;
60588;SDS011;46421;48.610;9.334;2023-06-26T01:04:35;8.23;;;3.73;;
60588;SDS011;46421;48.610;9.334;2023-06-26T01:07:01;9.00;;;3.83;;
60588;SDS011;46421;48.610;9.334;2023-06-26T01:09:26;9.10;;;4.03;;
60588;SDS011;46421;48.610;9.334;2023-06-26T01:11:52;8.63;;;3.95;;
60588;SDS011;46421;48.610;9.334;2023-06-26T01:14:17;10.00;;;4.03;;
60588;SDS011;46421;48.610;9.334;2023-06-26T01:16:43;8.10;;;4.00;;
60588;SDS011;46421;48.610;9.334;2023-06-26T01:19:18;8.02;;;4.18;;
60588;SDS011;46421;48.610;9.334;2023-06-26T01:21:49;9.27;;;4.35;;
60588;SDS011;46421;48.610;9.334;2023-06-26T01:24:16;9.35;;;4.13;;
60588;SDS011;46421;48.610;9.334;2023-06-26T01:26:45;12.60;;;4.60;;
60588;SDS011;46421;48.610;9.334;2023-06-26T01:29:11;8.43;;;3.97;;
60588;SDS011;46421;48.610;9.334;2023-06-26T01:31:38;9.30;;;3.88;;
60588;SDS011;46421;48.610;9.334;2023-06-26T01:34:04;8.02;;;3.75;;
60588;SDS011;46421;48.610;9.334;2023-06-26T01:36:29;7.73;;;3.77;;
60588;SDS011;46421;48.610;9.334;2023-06-26T01:38:54;7.85;;;3.42;;
60588;SDS011;46421;48.610;9.334;2023-06-26T01:41:20;9.93;;;4.43;;
60588;SDS011;46421;48.610;9.334;2023-06-26T01:44:03;9.35;;;4.35;;
60588;SDS011;46421;48.610;9.334;2023-06-26T01:49:02;8.07;;;4.07;;
60588;SDS011;46421;48.610;9.334;2023-06-26T01:51:32;10.20;;;4.25;;
60588;SDS011;46421;48.610;9.334;2023-06-26T01:53:59;8.63;;;3.75;;
60588;SDS011;46421;48.610;9.334;2023-06-26T01:56:25;8.40;;;4.32;;
60588;SDS011;46421;48.610;9.334;2023-06-26T01:58:51;10.60;;;4.45;;
60588;SDS011;46421;48.610;9.334;2023-06-26T02:01:20;8.30;;;3.80;;
60588;SDS011;46421;48.610;9.334;2023-06-26T02:03:45;9.75;;;4.28;;
60588;SDS011;46421;48.610;9.334;2023-06-26T02:06:10;7.73;;;4.43;;
60588;SDS011;46421;48.610;9.334;2023-06-26T02:08:35;9.13;;;4.10;;
60588;SDS011;46421;48.610;9.334;2023-06-26T02:11:00;11.07;;;4.20;;
60588;SDS011;46421;48.610;9.334;2023-06-26T02:13:26;9.63;;;4.15;;
60588;SDS011;46421;48.610;9.334;2023-06-26T02:15:51;10.40;;;4.40;;
60588;SDS011;46421;48.610;9.334;2023-06-26T02:18:16;8.17;;;3.57;;
60588;SDS011;46421;48.610;9.334;2023-06-26T02:20:42;10.43;;;4.40;;
60588;SDS011;46421;48.610;9.334;2023-06-26T02:23:08;7.45;;;3.85;;
60588;SDS011;46421;48.610;9.334;2023-06-26T02:25:34;7.60;;;3.50;;
60588;SDS011;46421;48.610;9.334;2023-06-26T02:27:59;9.43;;;3.97;;
60588;SDS011;46421;48.610;9.334;2023-06-26T02:30:24;10.83;;;4.27;;
60588;SDS011;46421;48.610;9.334;2023-06-26T02:32:49;9.17;;;4.30;;
60588;SDS011;46421;48.610;9.334;2023-06-26T02:35:15;10.30;;;4.30;;
60588;SDS011;46421;48.610;9.334;2023-06-26T02:37:40;9.73;;;4.47;;
60588;SDS011;46421;48.610;9.334;2023-06-26T02:40:05;11.40;;;4.50;;
60588;SDS011;46421;48.610;9.334;2023-06-26T02:42:33;8.43;;;3.80;;
60588;SDS011;46421;48.610;9.334;2023-06-26T02:44:58;9.38;;;4.50;;
60588;SDS011;46421;48.610;9.334;2023-06-26T02:47:23;8.13;;;3.90;;
60588;SDS011;46421;48.610;9.334;2023-06-26T02:49:49;8.63;;;4.27;;
60588;SDS011;46421;48.610;9.334;2023-06-26T02:52:14;8.43;;;3.97;;
60588;SDS011;46421;48.610;9.334;2023-06-26T02:54:39;8.27;;;3.73;;
60588;SDS011;46421;48.610;9.334;2023-06-26T02:57:04;8.87;;;3.73;;
60588;SDS011;46421;48.610;9.334;2023-06-26T02:59:29;11.10;;;4.27;;
60588;SDS011;46421;48.610;9.334;2023-06-26T03:01:55;9.35;;;4.60;;
60588;SDS011;46421;48.610;9.334;2023-06-26T03:04:20;7.90;;;4.33;;
60588;SDS011;46421;48.610;9.334;2023-06-26T03:06:46;8.38;;;3.80;;
60588;SDS011;46421;48.610;9.334;2023-06-26T03:09:11;9.00;;;4.40;;
60588;SDS011;46421;48.610;9.334;2023-06-26T03:11:36;9.13;;;4.40;;
60588;SDS011;46421;48.610;9.334;2023-06-26T03:14:02;9.48;;;4.25;;
60588;SDS011;46421;48.610;9.334;2023-06-26T03:16:27;8.17;;;4.60;;
60588;SDS011;46421;48.610;9.334;2023-06-26T03:18:52;10.97;;;4.23;;
60588;SDS011;46421;48.610;9.334;2023-06-26T03:21:17;9.17;;;4.00;;
60588;SDS011;46421;48.610;9.334;2023-06-26T03:23:43;9.27;;;4.63;;
60588;SDS011;46421;48.610;9.334;2023-06-26T03:26:08;8.73;;;4.40;;
60588;SDS011;46421;48.610;9.334;2023-06-26T03:28:33;8.07;;;3.90;;
60588;SDS011;46421;48.610;9.334;2023-06-26T03:30:58;9.57;;;4.37;;
60588;SDS011;46421;48.610;9.334;2023-06-26T03:33:24;8.05;;;3.60;;
60588;SDS011;46421;48.610;9.334;2023-06-26T03:35:49;12.23;;;4.95;;
60588;SDS011;46421;48.610;9.334;2023-06-26T03:38:14;12.10;;;4.47;;
60588;SDS011;46421;48.610;9.334;2023-06-26T03:40:40;10.67;;;4.50;;
60588;SDS011;46421;48.610;9.334;2023-06-26T03:43:05;8.13;;;3.77;;
60588;SDS011;46421;48.610;9.334;2023-06-26T03:45:30;8.33;;;4.27;;
60588;SDS011;46421;48.610;9.334;2023-06-26T03:47:55;8.23;;;3.70;;
60588;SDS011;46421;48.610;9.334;2023-06-26T03:50:20;9.50;;;4.07;;
60588;SDS011;46421;48.610;9.334;2023-06-26T03:52:46;9.60;;;3.97;;
60588;SDS011;46421;48.610;9.334;2023-06-26T03:55:11;8.93;;;4.13;;
60588;SDS011;46421;48.610;9.334;2023-06-26T03:57:36;7.93;;;4.47;;
60588;SDS011;46421;48.610;9.334;2023-06-26T04:00:01;9.43;;;4.47;;
60588;SDS011;46421;48.610;9.334;2023-06-26T04:02:30;9.13;;;4.45;;
60588;SDS011;46421;48.610;9.334;2023-06-26T04:04:56;8.73;;;4.43;;
60588;SDS011;46421;48.610;9.334;2023-06-26T04:07:21;8.37;;;4.13;;
60588;SDS011;46421;48.610;9.334;2023-06-26T04:09:46;10.23;;;4.97;;
60588;SDS011;46421;48.610;9.334;2023-06-26T04:12:11;8.77;;;4.10;;
60588;SDS011;46421;48.610;9.334;2023-06-26T04:14:37;8.90;;;3.93;;
60588;SDS011;46421;48.610;9.334;2023-06-26T04:17:02;9.10;;;4.60;;
60588;SDS011;46421;48.610;9.334;2023-06-26T04:19:28;10.13;;;4.10;;
60588;SDS011;46421;48.610;9.334;2023-06-26T04:21:53;9.43;;;4.03;;
60588;SDS011;46421;48.610;9.334;2023-06-26T04:24:18;9.27;;;3.93;;
60588;SDS011;46421;48.610;9.334;2023-06-26T04:26:44;10.00;;;4.83;;
60588;SDS011;46421;48.610;9.334;2023-06-26T04:29:10;9.02;;;4.38;;
60588;SDS011;46421;48.610;9.334;2023-06-26T04:31:36;8.13;;;4.32;;
60588;SDS011;46421;48.610;9.334;2023-06-26T04:34:01;11.07;;;5.37;;
60588;SDS011;46421;48.610;9.334;2023-06-26T04:36:26;8.80;;;4.63;;
60588;SDS011;46421;48.610;9.334;2023-06-26T04:38:54;8.60;;;4.47;;
60588;SDS011;46421;48.610;9.334;2023-06-26T04:41:20;8.57;;;4.35;;
60588;SDS011;46421;48.610;9.334;2023-06-26T04:43:46;10.00;;;4.47;;
60588;SDS011;46421;48.610;9.334;2023-06-26T04:46:11;9.60;;;4.27;;
60588;SDS011;46421;48.610;9.334;2023-06-26T04:48:36;8.67;;;4.00;;
60588;SDS011;46421;48.610;9.334;2023-06-26T04:51:02;11.50;;;4.88;;
60588;SDS011;46421;48.610;9.334;2023-06-26T04:53:27;9.10;;;4.07;;
60588;SDS011;46421;48.610;9.334;2023-06-26T04:55:53;8.57;;;4.47;;
60588;SDS011;46421;48.610;9.334;2023-06-26T04:58:18;8.77;;;4.10;;
60588;SDS011;46421;48.610;9.334;2023-06-26T05:00:43;8.75;;;4.47;;
60588;SDS011;46421;48.610;9.334;2023-06-26T05:03:11;10.47;;;4.47;;
60588;SDS011;46421;48.610;9.334;2023-06-26T05:05:37;9.15;;;4.32;;
60588;SDS011;46421;48.610;9.334;2023-06-26T05:08:23;8.93;;;4.35;;
60588;SDS011;46421;48.610;9.334;2023-06-26T05:10:48;7.68;;;3.90;;
60588;SDS011;46421;48.610;9.334;2023-06-26T05:13:13;9.88;;;3.90;;
60588;SDS011;46421;48.610;9.334;2023-06-26T05:15:41;11.23;;;4.68;;
60588;SDS011;46421;48.610;9.334;2023-06-26T05:18:06;9.85;;;4.07;;
60588;SDS011;46421;48.610;9.334;2023-06-26T05:20:32;8.97;;;4.27;;
60588;SDS011;46421;48.610;9.334;2023-06-26T05:22:57;7.95;;;4.07;;
60588;SDS011;46421;48.610;9.334;2023-06-26T05:25:23;6.75;;;3.70;;
60588;SDS011;46421;48.610;9.334;2023-06-26T05:27:49;8.10;;;4.18;;
60588;SDS011;46421;48.610;9.334;2023-06-26T05:30:14;8.45;;;4.40;;
60588;SDS011;46421;48.610;9.334;2023-06-26T05:32:39;7.25;;;3.95;;
60588;SDS011;46421;48.610;9.334;2023-06-26T05:35:05;8.52;;;3.70;;
60588;SDS011;46421;48.610;9.334;2023-06-26T05:37:31;8.80;;;4.25;;
60588;SDS011;46421;48.610;9.334;2023-06-26T05:39:57;10.07;;;4.22;;
60588;SDS011;46421;48.610;9.334;2023-06-26T05:42:22;8.07;;;3.92;;
60588;SDS011;46421;48.610;9.334;2023-06-26T05:44:48;10.68;;;4.43;;
60588;SDS011;46421;48.610;9.334;2023-06-26T05:47:13;9.67;;;4.10;;
60588;SDS011;46421;48.610;9.334;2023-06-26T05:49:38;8.60;;;3.87;;
60588;SDS011;46421;48.610;9.334;2023-06-26T05:52:04;8.87;;;4.00;;
60588;SDS011;46421;48.610;9.334;2023-06-26T05:54:29;8.82;;;3.92;;
60588;SDS011;46421;48.610;9.334;2023-06-26T05:56:55;9.57;;;4.03;;
60588;SDS011;46421;48.610;9.334;2023-06-26T05:59:22;7.35;;;3.47;;
60588;SDS011;46421;48.610;9.334;2023-06-26T06:01:47;7.35;;;3.95;;
60588;SDS011;46421;48.610;9.334;2023-06-26T06:04:12;7.83;;;3.60;;
60588;SDS011;46421;48.610;9.334;2023-06-26T06:06:37;8.87;;;3.97;;
60588;SDS011;46421;48.610;9.334;2023-06-26T06:09:02;8.00;;;3.70;;
60588;SDS011;46421;48.610;9.334;2023-06-26T06:11:28;9.23;;;3.83;;
60588;SDS011;46421;48.610;9.334;2023-06-26T06:13:53;7.20;;;3.70;;
60588;SDS011;46421;48.610;9.334;2023-06-26T06:16:18;9.27;;;4.20;;
60588;SDS011;46421;48.610;9.334;2023-06-26T06:18:44;8.13;;;3.92;;
60588;SDS011;46421;48.610;9.334;2023-06-26T06:21:10;8.50;;;4.23;;
60588;SDS011;46421;48.610;9.334;2023-06-26T06:23:35;8.40;;;3.77;;
60588;SDS011;46421;48.610;9.334;2023-06-26T06:26:01;8.60;;;3.83;;
60588;SDS011;46421;48.610;9.334;2023-06-26T06:28:26;8.67;;;4.40;;
60588;SDS011;46421;48.610;9.334;2023-06-26T06:30:51;8.67;;;4.50;;
60588;SDS011;46421;48.610;9.334;2023-06-26T06:33:16;7.97;;;3.80;;
60588;SDS011;46421;48.610;9.334;2023-06-26T06:35:41;8.47;;;3.77;;
60588;SDS011;46421;48.610;9.334;2023-06-26T06:38:07;5.93;;;3.65;;
60588;SDS011;46421;48.610;9.334;2023-06-26T06:40:32;8.17;;;3.70;;
60588;SDS011;46421;48.610;9.334;2023-06-26T06:42:57;8.43;;;4.10;;
60588;SDS011;46421;48.610;9.334;2023-06-26T06:45:22;8.00;;;3.97;;
60588;SDS011;46421;48.610;9.334;2023-06-26T06:47:48;7.60;;;3.60;;
60588;SDS011;46421;48.610;9.334;2023-06-26T06:50:13;7.43;;;3.43;;
60588;SDS011;46421;48.610;9.334;2023-06-26T06:52:40;6.97;;;3.92;;
60588;SDS011;46421;48.610;9.334;2023-06-26T06:55:06;6.32;;;3.45;;
60588;SDS011;46421;48.610;9.334;2023-06-26T06:57:35;8.45;;;3.60;;
60588;SDS011;46421;48.610;9.334;2023-06-26T07:00:06;7.60;;;3.88;;
60588;SDS011;46421;48.610;9.334;2023-06-26T07:02:34;6.82;;;3.60;;
60588;SDS011;46421;48.610;9.334;2023-06-26T07:04:59;7.63;;;3.83;;
60588;SDS011;46421;48.610;9.334;2023-06-26T07:07:24;9.43;;;4.20;;
60588;SDS011;46421;48.610;9.334;2023-06-26T07:09:53;7.50;;;3.78;;
60588;SDS011;46421;48.610;9.334;2023-06-26T07:12:18;8.13;;;3.97;;
60588;SDS011;46421;48.610;9.334;2023-06-26T07:14:43;7.37;;;3.77;;
60588;SDS011;46421;48.610;9.334;2023-06-26T07:17:08;7.50;;;3.77;;
60588;SDS011;46421;48.610;9.334;2023-06-26T07:19:34;6.27;;;3.50;;
60588;SDS011;46421;48.610;9.334;2023-06-26T07:21:59;8.07;;;4.10;;
60588;SDS011;46421;48.610;9.334;2023-06-26T07:24:24;7.87;;;4.00;;
60588;SDS011;46421;48.610;9.334;2023-06-26T07:26:49;7.20;;;3.77;;
60588;SDS011;46421;48.610;9.334;2023-06-26T07:29:15;6.15;;;3.28;;
60588;SDS011;46421;48.610;9.334;2023-06-26T07:31:40;6.17;;;3.50;;
60588;SDS011;46421;48.610;9.334;2023-06-26T07:34:05;7.60;;;4.10;;
60588;SDS011;46421;48.610;9.334;2023-06-26T07:36:30;6.77;;;4.13;;
60588;SDS011;46421;48.610;9.334;2023-06-26T07:38:56;7.83;;;4.17;;
60588;SDS011;46421;48.610;9.334;2023-06-26T07:41:21;7.72;;;4.15;;
60588;SDS011;46421;48.610;9.334;2023-06-26T07:43:46;6.73;;;4.03;;
60588;SDS011;46421;48.610;9.334;2023-06-26T07:46:11;9.23;;;4.30;;
60588;SDS011;46421;48.610;9.334;2023-06-26T07:51:02;7.07;;;4.00;;
60588;SDS011;46421;48.610;9.334;2023-06-26T07:53:28;7.60;;;4.00;;
60588;SDS011;46421;48.610;9.334;2023-06-26T07:58:18;8.47;;;4.33;;
60588;SDS011;46421;48.610;9.334;2023-06-26T08:03:09;6.80;;;3.75;;
60588;SDS011;46421;48.610;9.334;2023-06-26T08:07:59;6.22;;;4.07;;
60588;SDS011;46421;48.610;9.334;2023-06-26T08:10:27;8.10;;;4.57;;
60588;SDS011;46421;48.610;9.334;2023-06-26T08:12:52;6.87;;;4.03;;
60588;SDS011;46421;48.610;9.334;2023-06-26T08:15:17;8.38;;;4.43;;
60588;SDS011;46421;48.610;9.334;2023-06-26T08:17:43;7.13;;;4.33;;
60588;SDS011;46421;48.610;9.334;2023-06-26T08:20:08;6.10;;;4.07;;
60588;SDS011;46421;48.610;9.334;2023-06-26T08:22:33;6.90;;;4.43;;
60588;SDS011;46421;48.610;9.334;2023-06-26T08:24:59;6.82;;;4.28;;
60588;SDS011;46421;48.610;9.334;2023-06-26T08:27:24;6.28;;;4.07;;
60588;SDS011;46421;48.610;9.334;2023-06-26T08:29:49;5.95;;;4.03;;
60588;SDS011;46421;48.610;9.334;2023-06-26T08:32:15;6.83;;;4.10;;
60588;SDS011;46421;48.610;9.334;2023-06-26T08:34:40;7.13;;;4.80;;
60588;SDS011;46421;48.610;9.334;2023-06-26T08:37:05;7.37;;;4.03;;
60588;SDS011;46421;48.610;9.334;2023-06-26T08:39:30;6.30;;;4.03;;
60588;SDS011;46421;48.610;9.334;2023-06-26T08:41:55;6.43;;;4.37;;
60588;SDS011;46421;48.610;9.334;2023-06-26T08:44:21;8.47;;;4.30;;
60588;SDS011;46421;48.610;9.334;2023-06-26T08:46:50;7.40;;;4.45;;
60588;SDS011;46421;48.610;9.334;2023-06-26T08:49:24;6.38;;;4.47;;
60588;SDS011;46421;48.610;9.334;2023-06-26T08:51:57;6.50;;;4.45;;
60588;SDS011;46421;48.610;9.334;2023-06-26T08:54:27;5.45;;;3.78;;
60588;SDS011;46421;48.610;9.334;2023-06-26T08:56:54;6.32;;;4.38;;
60588;SDS011;46421;48.610;9.334;2023-06-26T08:59:19;6.45;;;4.30;;
60588;SDS011;46421;48.610;9.334;2023-06-26T09:01:45;5.68;;;3.80;;
60588;SDS011;46421;48.610;9.334;2023-06-26T09:04:11;7.00;;;4.60;;
60588;SDS011;46421;48.610;9.334;2023-06-26T09:06:36;4.67;;;3.47;;
60588;SDS011;46421;48.610;9.334;2023-06-26T09:09:01;7.73;;;4.40;;
60588;SDS011;46421;48.610;9.334;2023-06-26T09:11:27;6.50;;;4.45;;
60588;SDS011;46421;48.610;9.334;2023-06-26T09:13:53;6.05;;;4.22;;
60588;SDS011;46421;48.610;9.334;2023-06-26T09:16:23;6.25;;;4.53;;
60588;SDS011;46421;48.610;9.334;2023-06-26T09:18:49;5.97;;;4.20;;
60588;SDS011;46421;48.610;9.334;2023-06-26T09:21:15;5.93;;;4.30;;
60588;SDS011;46421;48.610;9.334;2023-06-26T09:23:41;6.40;;;4.38;;
60588;SDS011;46421;48.610;9.334;2023-06-26T09:26:06;6.40;;;4.55;;
60588;SDS011;46421;48.610;9.334;2023-06-26T09:28:32;6.90;;;4.80;;
60588;SDS011;46421;48.610;9.334;2023-06-26T09:31:04;6.80;;;4.45;;
60588;SDS011;46421;48.610;9.334;2023-06-26T09:33:33;6.82;;;4.97;;
60588;SDS011;46421;48.610;9.334;2023-06-26T09:36:04;6.63;;;4.82;;
60588;SDS011;46421;48.610;9.334;2023-06-26T09:38:30;5.88;;;4.38;;
60588;SDS011;46421;48.610;9.334;2023-06-26T09:40:55;6.72;;;4.38;;
60588;SDS011;46421;48.610;9.334;2023-06-26T09:43:20;5.97;;;4.10;;
60588;SDS011;46421;48.610;9.334;2023-06-26T09:45:46;7.27;;;4.37;;
60588;SDS011;46421;48.610;9.334;2023-06-26T09:48:11;7.40;;;4.23;;
60588;SDS011;46421;48.610;9.334;2023-06-26T09:50:40;5.65;;;4.20;;
60588;SDS011;46421;48.610;9.334;2023-06-26T09:53:09;7.15;;;4.60;;
60588;SDS011;46421;48.610;9.334;2023-06-26T09:55:35;6.55;;;4.28;;
60588;SDS011;46421;48.610;9.334;2023-06-26T09:58:01;6.68;;;5.10;;
60588;SDS011;46421;48.610;9.334;2023-06-26T10:00:27;6.40;;;4.72;;
60588;SDS011;46421;48.610;9.334;2023-06-26T10:02:52;5.88;;;4.65;;
60588;SDS011;46421;48.610;9.334;2023-06-26T10:05:18;5.77;;;4.13;;
60588;SDS011;46421;48.610;9.334;2023-06-26T10:07:44;6.15;;;4.40;;
60588;SDS011;46421;48.610;9.334;2023-06-26T10:10:10;6.82;;;3.90;;
60588;SDS011;46421;48.610;9.334;2023-06-26T10:12:36;5.63;;;4.60;;
60588;SDS011;46421;48.610;9.334;2023-06-26T10:15:02;5.30;;;3.60;;
60588;SDS011;46421;48.610;9.334;2023-06-26T10:17:30;6.25;;;4.20;;
60588;SDS011;46421;48.610;9.334;2023-06-26T10:19:55;6.80;;;4.22;;
60588;SDS011;46421;48.610;9.334;2023-06-26T10:22:24;5.70;;;4.28;;
60588;SDS011;46421;48.610;9.334;2023-06-26T10:24:50;5.78;;;4.28;;
60588;SDS011;46421;48.610;9.334;2023-06-26T10:27:17;7.22;;;4.40;;
60588;SDS011;46421;48.610;9.334;2023-06-26T10:29:43;6.45;;;3.90;;
60588;SDS011;46421;48.610;9.334;2023-06-26T10:32:11;6.18;;;4.53;;
60588;SDS011;46421;48.610;9.334;2023-06-26T10:34:37;6.80;;;4.78;;
60588;SDS011;46421;48.610;9.334;2023-06-26T10:37:03;7.43;;;5.07;;
60588;SDS011;46421;48.610;9.334;2023-06-26T10:39:48;6.60;;;4.85;;
60588;SDS011;46421;48.610;9.334;2023-06-26T10:42:19;6.30;;;4.72;;
60588;SDS011;46421;48.610;9.334;2023-06-26T10:44:46;6.30;;;4.60;;
60588;SDS011;46421;48.610;9.334;2023-06-26T10:47:33;6.22;;;4.53;;
60588;SDS011;46421;48.610;9.334;2023-06-26T10:50:16;6.68;;;4.30;;
60588;SDS011;46421;48.610;9.334;2023-06-26T10:52:41;7.20;;;5.30;;
60588;SDS011;46421;48.610;9.334;2023-06-26T10:55:08;5.80;;;4.00;;
60588;SDS011;46421;48.610;9.334;2023-06-26T10:57:33;6.47;;;4.07;;
60588;SDS011;46421;48.610;9.334;2023-06-26T11:00:10;6.57;;;4.15;;
60588;SDS011;46421;48.610;9.334;2023-06-26T11:02:57;6.82;;;3.97;;
60588;SDS011;46421;48.610;9.334;2023-06-26T11:05:28;6.47;;;3.85;;
60588;SDS011;46421;48.610;9.334;2023-06-26T11:08:12;6.65;;;3.95;;
60588;SDS011;46421;48.610;9.334;2023-06-26T11:10:50;6.22;;;4.10;;
60588;SDS011;46421;48.610;9.334;2023-06-26T11:13:17;8.10;;;4.00;;
60588;SDS011;46421;48.610;9.334;2023-06-26T11:15:43;6.38;;;3.97;;
60588;SDS011;46421;48.610;9.334;2023-06-26T11:18:09;6.28;;;3.85;;
60588;SDS011;46421;48.610;9.334;2023-06-26T11:20:36;8.93;;;4.18;;
60588;SDS011;46421;48.610;9.334;2023-06-26T11:23:02;7.60;;;3.93;;
60588;SDS011;46421;48.610;9.334;2023-06-26T11:25:28;6.63;;;3.95;;
60588;SDS011;46421;48.610;9.334;2023-06-26T11:27:54;8.00;;;4.13;;
60588;SDS011;46421;48.610;9.334;2023-06-26T11:32:44;10.48;;;4.30;;
60588;SDS011;46421;48.610;9.334;2023-06-26T11:35:09;7.50;;;4.10;;
60588;SDS011;46421;48.610;9.334;2023-06-26T11:40:15;6.82;;;4.55;;
60588;SDS011;46421;48.610;9.334;2023-06-26T11:42:40;7.90;;;5.15;;
60588;SDS011;46421;48.610;9.334;2023-06-26T11:45:06;7.43;;;4.97;;
60588;SDS011;46421;48.610;9.334;2023-06-26T11:47:31;7.47;;;5.35;;
60588;SDS011;46421;48.610;9.334;2023-06-26T11:49:56;7.33;;;4.93;;
60588;SDS011;46421;48.610;9.334;2023-06-26T11:52:21;7.80;;;5.03;;
60588;SDS011;46421;48.610;9.334;2023-06-26T11:54:47;6.73;;;4.87;;
60588;SDS011;46421;48.610;9.334;2023-06-26T11:57:15;6.95;;;5.20;;
60588;SDS011;46421;48.610;9.334;2023-06-26T11:59:42;6.55;;;4.97;;
60588;SDS011;46421;48.610;9.334;2023-06-26T12:02:07;7.53;;;5.13;;
60588;SDS011;46421;48.610;9.334;2023-06-26T12:04:34;8.00;;;5.05;;
60588;SDS011;46421;48.610;9.334;2023-06-26T12:07:00;7.70;;;5.22;;
60588;SDS011;46421;48.610;9.334;2023-06-26T12:09:30;7.85;;;5.28;;
60588;SDS011;46421;48.610;9.334;2023-06-26T12:11:55;7.20;;;4.43;;
60588;SDS011;46421;48.610;9.334;2023-06-26T12:14:22;6.65;;;5.47;;
60588;SDS011;46421;48.610;9.334;2023-06-26T12:16:47;9.07;;;4.72;;
60588;SDS011;46421;48.610;9.334;2023-06-26T12:19:13;9.68;;;5.55;;
60588;SDS011;46421;48.610;9.334;2023-06-26T12:24:15;8.90;;;5.47;;
60588;SDS011;46421;48.610;9.334;2023-06-26T12:26:41;7.13;;;5.10;;
60588;SDS011;46421;48.610;9.334;2023-06-26T12:29:10;8.05;;;5.63;;
60588;SDS011;46421;48.610;9.334;2023-06-26T12:31:41;7.03;;;5.07;;
60588;SDS011;46421;48.610;9.334;2023-06-26T12:34:10;6.82;;;5.63;;
60588;SDS011;46421;48.610;9.334;2023-06-26T12:36:43;7.95;;;5.13;;
60588;SDS011;46421;48.610;9.334;2023-06-26T12:39:10;7.38;;;5.32;;
60588;SDS011;46421;48.610;9.334;2023-06-26T12:41:43;6.82;;;5.28;;
60588;SDS011;46421;48.610;9.334;2023-06-26T12:46:34;7.55;;;5.30;;
60588;SDS011;46421;48.610;9.334;2023-06-26T12:49:00;7.05;;;5.40;;
60588;SDS011;46421;48.610;9.334;2023-06-26T12:51:25;7.18;;;5.50;;
60588;SDS011;46421;48.610;9.334;2023-06-26T12:53:52;8.38;;;5.75;;
60588;SDS011;46421;48.610;9.334;2023-06-26T12:56:17;7.60;;;5.33;;
60588;SDS011;46421;48.610;9.334;2023-06-26T12:58:43;7.75;;;5.28;;
60588;SDS011;46421;48.610;9.334;2023-06-26T13:01:08;8.25;;;5.28;;
60588;SDS011;46421;48.610;9.334;2023-06-26T13:03:39;8.77;;;5.00;;
60588;SDS011;46421;48.610;9.334;2023-06-26T13:06:05;7.03;;;4.82;;
60588;SDS011;46421;48.610;9.334;2023-06-26T13:08:30;8.07;;;4.72;;
60588;SDS011;46421;48.610;9.334;2023-06-26T13:13:20;7.43;;;4.57;;
60588;SDS011;46421;48.610;9.334;2023-06-26T13:15:46;6.33;;;4.50;;
60588;SDS011;46421;48.610;9.334;2023-06-26T13:20:36;6.13;;;4.40;;
60588;SDS011;46421;48.610;9.334;2023-06-26T13:23:01;5.93;;;4.20;;
60588;SDS011;46421;48.610;9.334;2023-06-26T13:25:27;7.70;;;5.00;;
60588;SDS011;46421;48.610;9.334;2023-06-26T13:27:52;8.50;;;5.83;;
60588;SDS011;46421;48.610;9.334;2023-06-26T13:30:17;7.33;;;4.23;;
60588;SDS011;46421;48.610;9.334;2023-06-26T13:32:42;9.37;;;5.17;;
60588;SDS011;46421;48.610;9.334;2023-06-26T13:35:08;7.25;;;4.43;;
60588;SDS011;46421;48.610;9.334;2023-06-26T13:37:34;7.00;;;4.40;;
60588;SDS011;46421;48.610;9.334;2023-06-26T13:40:00;7.30;;;4.70;;
60588;SDS011;46421;48.610;9.334;2023-06-26T13:42:27;7.68;;;4.45;;
60588;SDS011;46421;48.610;9.334;2023-06-26T13:47:17;6.97;;;3.93;;
60588;SDS011;46421;48.610;9.334;2023-06-26T13:52:08;7.80;;;4.40;;
60588;SDS011;46421;48.610;9.334;2023-06-26T13:54:34;6.77;;;4.80;;
60588;SDS011;46421;48.610;9.334;2023-06-26T13:57:00;6.95;;;3.90;;
60588;SDS011;46421;48.610;9.334;2023-06-26T13:59:27;7.40;;;4.28;;
60588;SDS011;46421;48.610;9.334;2023-06-26T14:01:52;7.18;;;4.53;;
60588;SDS011;46421;48.610;9.334;2023-06-26T14:06:42;6.93;;;4.53;;
60588;SDS011;46421;48.610;9.334;2023-06-26T14:11:33;8.57;;;4.38;;
60588;SDS011;46421;48.610;9.334;2023-06-26T14:16:24;7.05;;;4.72;;
60588;SDS011;46421;48.610;9.334;2023-06-26T14:18:50;6.82;;;4.50;;
60588;SDS011;46421;48.610;9.334;2023-06-26T14:21:15;6.17;;;3.90;;
60588;SDS011;46421;48.610;9.334;2023-06-26T14:23:41;10.57;;;4.10;;
60588;SDS011;46421;48.610;9.334;2023-06-26T14:26:06;7.50;;;4.27;;
60588;SDS011;46421;48.610;9.334;2023-06-26T14:28:31;7.27;;;3.97;;
60588;SDS011;46421;48.610;9.334;2023-06-26T14:30:56;5.67;;;3.27;;
60588;SDS011;46421;48.610;9.334;2023-06-26T14:35:47;7.38;;;4.28;;
60588;SDS011;46421;48.610;9.334;2023-06-26T14:40:37;6.70;;;3.83;;
60588;SDS011;46421;48.610;9.334;2023-06-26T14:45:27;7.00;;;3.90;;
60588;SDS011;46421;48.610;9.334;2023-06-26T14:50:18;7.60;;;4.43;;
60588;SDS011;46421;48.610;9.334;2023-06-26T14:55:09;6.20;;;4.13;;
60588;SDS011;46421;48.610;9.334;2023-06-26T14:57:34;6.53;;;3.47;;
60588;SDS011;46421;48.610;9.334;2023-06-26T15:02:25;5.97;;;3.65;;
60588;SDS011;46421;48.610;9.334;2023-06-26T15:04:50;5.40;;;3.40;;
60588;SDS011;46421;48.610;9.334;2023-06-26T15:09:40;6.85;;;2.95;;
60588;SDS011;46421;48.610;9.334;2023-06-26T15:12:06;5.77;;;3.40;;
60588;SDS011;46421;48.610;9.334;2023-06-26T15:14:31;6.00;;;3.40;;
60588;SDS011;46421;48.610;9.334;2023-06-26T15:16:56;6.70;;;3.33;;
60588;SDS011;46421;48.610;9.334;2023-06-26T15:19:21;6.80;;;3.10;;
60588;SDS011;46421;48.610;9.334;2023-06-26T15:21:47;6.47;;;3.47;;
60588;SDS011;46421;48.610;9.334;2023-06-26T15:24:12;5.22;;;2.90;;
60588;SDS011;46421;48.610;9.334;2023-06-26T15:26:37;5.67;;;2.47;;
60588;SDS011;46421;48.610;9.334;2023-06-26T15:29:02;5.53;;;2.77;;
60588;SDS011;46421;48.610;9.334;2023-06-26T15:31:28;6.80;;;3.05;;
60588;SDS011;46421;48.610;9.334;2023-06-26T15:33:54;6.47;;;3.20;;
60588;SDS011;46421;48.610;9.334;2023-06-26T15:36:20;4.90;;;2.53;;